createdAt,value
2024-05-09T13:30:30.044Z,1.48
2024-05-09T13:36:48.689Z,1.75
2024-05-09T13:44:46.724Z,2.10
2024-05-09T13:47:14.801Z,2.53
2024-05-09T13:49:41.993Z,2.00
2024-05-09T13:52:11.949Z,2.47
2024-05-09T13:54:38.975Z,1.88
2024-05-09T13:57:06.326Z,2.30
2024-05-09T13:59:33.172Z,2.38
2024-05-09T14:02:00.066Z,2.22
2024-05-09T14:04:27.308Z,1.50
2024-05-09T14:06:54.653Z,2.00
2024-05-09T14:09:21.655Z,1.63
2024-05-09T14:11:48.604Z,1.80
2024-05-09T14:14:15.573Z,1.80
2024-05-09T14:16:43.219Z,1.88
2024-05-09T14:19:10.266Z,1.90
2024-05-09T14:21:37.232Z,1.70
2024-05-09T14:24:04.576Z,1.77
2024-05-09T14:26:31.522Z,2.33
2024-05-09T14:29:33.085Z,1.70
2024-05-09T14:31:59.981Z,1.67
2024-05-09T14:34:28.189Z,1.65
2024-05-09T14:36:55.335Z,2.00
2024-05-09T14:39:22.421Z,1.70
2024-05-09T14:41:49.335Z,1.65
2024-05-09T14:44:16.579Z,1.90
2024-05-09T14:46:43.535Z,2.30
2024-05-09T14:49:12.457Z,1.73
2024-05-09T14:51:40.178Z,1.90
2024-05-09T14:54:07.085Z,1.85
2024-05-09T14:56:33.940Z,1.70
2024-05-09T14:59:00.800Z,1.92
2024-05-09T15:01:28.158Z,2.05
2024-05-09T15:03:56.846Z,1.83
2024-05-09T15:06:24.434Z,1.58
2024-05-09T15:08:55.736Z,1.90
2024-05-09T15:11:23.676Z,1.42
2024-05-09T15:13:50.972Z,1.75
2024-05-09T15:16:18.753Z,1.52
2024-05-09T15:18:45.975Z,1.73
2024-05-09T15:21:12.956Z,1.80
2024-05-09T15:23:39.998Z,2.00
2024-05-09T15:26:07.135Z,1.65
2024-05-09T15:28:34.089Z,2.50
2024-05-09T15:31:01.033Z,2.45
2024-05-09T15:33:27.997Z,2.40
2024-05-09T15:35:55.266Z,1.80
2024-05-09T15:38:22.273Z,1.85
2024-05-09T15:40:49.370Z,1.42
2024-05-09T15:43:16.661Z,1.65
2024-05-09T15:45:43.743Z,1.70
2024-05-09T15:48:11.888Z,1.65
2024-05-09T15:50:41.494Z,1.40
2024-05-09T15:53:12.068Z,1.67
2024-05-09T15:55:39.972Z,2.13
2024-05-09T15:58:07.772Z,2.00
2024-05-09T16:00:39.317Z,1.88
2024-05-09T16:03:14.295Z,2.35
2024-05-09T16:05:44.139Z,1.60
2024-05-09T16:08:12.755Z,1.95
2024-05-09T16:10:44.457Z,1.60
2024-05-09T16:13:12.892Z,1.75
2024-05-09T16:15:40.108Z,1.60
2024-05-09T16:18:07.505Z,2.08
2024-05-09T16:20:39.765Z,1.65
2024-05-09T16:23:09.504Z,2.05
2024-05-09T16:25:36.977Z,1.70
2024-05-09T16:28:08.704Z,1.70
2024-05-09T16:30:40.560Z,1.50
2024-05-09T16:33:08.847Z,1.83
2024-05-09T16:35:39.245Z,1.67
2024-05-09T16:38:06.536Z,1.60
2024-05-09T16:40:38.466Z,1.95
2024-05-09T16:43:09.238Z,1.25
2024-05-09T16:45:37.450Z,1.80
2024-05-09T16:48:05.630Z,2.33
2024-05-09T16:50:35.032Z,1.77
2024-05-09T16:53:04.497Z,2.40
2024-05-09T16:55:35.013Z,2.22
2024-05-09T16:58:03.320Z,2.00
2024-05-09T17:00:38.893Z,1.60
2024-05-09T17:03:11.129Z,1.73
2024-05-09T17:05:39.416Z,2.03
2024-05-09T17:08:07.424Z,1.70
2024-05-09T17:10:35.939Z,1.75
2024-05-09T17:13:05.755Z,2.13
2024-05-09T17:15:34.267Z,1.95
2024-05-09T17:18:02.034Z,1.65
2024-05-09T17:20:34.071Z,2.00
2024-05-09T17:23:04.982Z,1.70
2024-05-09T17:25:33.292Z,1.75
2024-05-09T17:28:06.522Z,1.63
2024-05-09T17:30:36.865Z,1.67
2024-05-09T17:33:07.462Z,2.03
2024-05-09T17:35:36.168Z,1.70
2024-05-09T17:38:05.850Z,2.30
2024-05-09T17:40:36.044Z,1.88
2024-05-09T17:43:06.338Z,1.75
2024-05-09T17:45:34.661Z,1.95
2024-05-09T17:48:02.109Z,2.03
2024-05-09T17:50:35.624Z,1.73
2024-05-09T17:53:08.198Z,2.25
2024-05-09T17:55:35.763Z,1.92
2024-05-09T17:58:04.750Z,2.38
2024-05-09T18:00:38.065Z,1.90
2024-05-09T18:03:08.864Z,1.60
2024-05-09T18:05:37.087Z,1.95
2024-05-09T18:08:05.813Z,2.05
2024-05-09T18:10:37.088Z,2.50
2024-05-09T18:13:07.424Z,2.33
2024-05-09T18:15:34.697Z,2.38
2024-05-09T18:18:02.667Z,1.85
2024-05-09T18:20:41.418Z,2.22
2024-05-09T18:23:14.173Z,3.05
2024-05-09T18:25:42.126Z,3.92
2024-05-09T18:28:09.537Z,4.53
2024-05-09T18:30:37.421Z,4.55
2024-05-09T18:33:17.126Z,4.80
2024-05-09T18:35:45.295Z,4.93
2024-05-09T18:38:12.941Z,4.78
2024-05-09T18:40:41.748Z,6.97
2024-05-09T18:43:10.817Z,10.07
2024-05-09T18:45:38.433Z,12.80
2024-05-09T18:48:07.546Z,10.93
2024-05-09T18:50:38.794Z,7.93
2024-05-09T18:53:08.315Z,3.70
2024-05-09T18:55:35.844Z,5.47
2024-05-09T18:58:04.361Z,7.10
2024-05-09T19:00:36.101Z,8.32
2024-05-09T19:03:12.301Z,7.68
2024-05-09T19:05:44.982Z,5.53
2024-05-09T19:08:13.199Z,4.55
2024-05-09T19:10:40.727Z,3.63
2024-05-09T19:13:11.897Z,4.05
2024-05-09T19:15:41.397Z,3.10
2024-05-09T19:18:12.912Z,2.90
2024-05-09T19:20:40.696Z,3.08
2024-05-09T19:23:07.803Z,2.70
2024-05-09T19:25:35.713Z,2.75
2024-05-09T19:28:05.966Z,2.70
2024-05-09T19:30:39.426Z,2.95
2024-05-09T19:33:10.930Z,2.58
2024-05-09T19:35:39.237Z,2.97
2024-05-09T19:38:06.298Z,2.50
2024-05-09T19:40:34.698Z,2.33
2024-05-09T19:43:04.967Z,2.67
2024-05-09T19:45:33.788Z,3.17
2024-05-09T19:48:01.967Z,2.53
2024-05-09T19:50:37.219Z,2.35
2024-05-09T19:53:09.763Z,3.15
2024-05-09T19:55:37.224Z,2.63
2024-05-09T19:58:05.674Z,2.83
2024-05-09T20:00:40.363Z,2.22
2024-05-09T20:03:10.741Z,2.85
2024-05-09T20:05:40.561Z,2.35
2024-05-09T20:08:07.885Z,2.47
2024-05-09T20:10:36.264Z,2.60
2024-05-09T20:13:06.682Z,2.40
2024-05-09T20:15:36.733Z,2.55
2024-05-09T20:18:04.760Z,2.50
2024-05-09T20:20:39.484Z,2.53
2024-05-09T20:23:10.314Z,2.47
2024-05-09T20:25:37.372Z,2.53
2024-05-09T20:28:06.159Z,2.88
2024-05-09T20:30:34.757Z,2.53
2024-05-09T20:33:04.911Z,2.38
2024-05-09T20:35:33.429Z,3.03
2024-05-09T20:38:02.315Z,2.50
2024-05-09T20:40:34.195Z,2.65
2024-05-09T20:43:05.079Z,3.05
2024-05-09T20:45:32.333Z,3.30
2024-05-09T20:47:59.722Z,2.70
2024-05-09T20:50:35.985Z,2.58
2024-05-09T20:53:08.616Z,3.70
2024-05-09T20:56:01.724Z,3.10
2024-05-09T20:58:30.231Z,2.95
2024-05-09T21:00:57.188Z,3.25
2024-05-09T21:03:25.682Z,3.42
2024-05-09T21:05:52.718Z,3.38
2024-05-09T21:08:20.168Z,4.30
2024-05-09T21:10:47.404Z,3.13
2024-05-09T21:13:14.936Z,3.22
2024-05-09T21:15:42.282Z,3.15
2024-05-09T21:18:09.667Z,3.65
2024-05-09T21:20:37.705Z,3.33
2024-05-09T21:23:05.033Z,3.90
2024-05-09T21:25:32.396Z,3.83
2024-05-09T21:27:59.834Z,3.03
2024-05-09T21:30:32.754Z,3.15
2024-05-09T21:33:12.957Z,3.80
2024-05-09T21:35:42.771Z,3.17
2024-05-09T21:38:10.080Z,2.92
2024-05-09T21:40:38.202Z,3.10
2024-05-09T21:43:07.742Z,2.80
2024-05-09T21:45:36.626Z,3.30
2024-05-09T21:48:06.981Z,3.42
2024-05-09T21:50:39.913Z,3.17
2024-05-09T21:53:09.781Z,3.30
2024-05-09T21:55:37.339Z,3.05
2024-05-09T21:58:04.554Z,4.55
2024-05-09T22:00:36.723Z,4.15
2024-05-09T22:03:10.667Z,4.57
2024-05-09T22:05:42.077Z,5.18
2024-05-09T22:08:09.656Z,4.95
2024-05-09T22:10:37.228Z,4.95
2024-05-09T22:13:08.408Z,5.20
2024-05-09T22:15:37.963Z,4.88
2024-05-09T22:18:08.253Z,4.80
2024-05-09T22:20:38.527Z,5.60
2024-05-09T22:23:08.341Z,5.45
2024-05-09T22:25:36.585Z,6.22
2024-05-09T22:28:04.662Z,5.38
2024-05-09T22:30:36.370Z,4.97
2024-05-09T22:33:07.596Z,4.85
2024-05-09T22:35:34.733Z,6.15
2024-05-09T22:38:03.346Z,6.15
2024-05-09T22:40:39.024Z,5.85
2024-05-09T22:43:16.620Z,5.05
2024-05-09T22:45:44.574Z,6.07
2024-05-09T22:48:11.937Z,5.35
2024-05-09T22:50:38.892Z,6.00
2024-05-09T22:53:05.795Z,6.03
2024-05-09T22:55:42.836Z,7.53
2024-05-09T22:58:09.960Z,6.70
2024-05-09T23:00:37.291Z,6.63
2024-05-09T23:03:04.410Z,6.28
2024-05-09T23:05:34.769Z,6.63
2024-05-09T23:08:02.667Z,6.18
2024-05-09T23:10:35.738Z,5.90
2024-05-09T23:13:05.416Z,5.80
2024-05-09T23:15:32.726Z,7.20
2024-05-09T23:17:59.847Z,7.25
2024-05-09T23:20:35.855Z,6.53
2024-05-09T23:23:07.471Z,6.50
2024-05-09T23:25:34.658Z,6.57
2024-05-09T23:28:02.043Z,6.53
2024-05-09T23:30:36.977Z,6.35
2024-05-09T23:33:08.345Z,6.10
2024-05-09T23:35:35.732Z,7.20
2024-05-09T23:38:02.787Z,7.10
2024-05-09T23:40:38.327Z,7.03
2024-05-09T23:43:12.107Z,7.63
2024-05-09T23:45:40.550Z,6.55
2024-05-09T23:48:08.135Z,6.35
2024-05-09T23:50:38.017Z,7.28
2024-05-09T23:53:09.230Z,7.28
2024-05-09T23:55:37.918Z,5.85
2024-05-09T23:58:05.924Z,7.38
